sensor_id;sensor_type;location;lat;lon;timestamp;P1;durP1;ratioP1;P2;durP2;ratioP2
15096;SDS011;7649;52.084;7.478;2022-11-14T00:01:05;29.10;;;22.20;;
15096;SDS011;7649;52.084;7.478;2022-11-14T00:03:33;32.83;;;22.00;;
15096;SDS011;7649;52.084;7.478;2022-11-14T00:06:03;27.93;;;21.13;;
15096;SDS011;7649;52.084;7.478;2022-11-14T00:08:32;29.10;;;21.63;;
15096;SDS011;7649;52.084;7.478;2022-11-14T00:11:00;28.93;;;20.37;;
15096;SDS011;7649;52.084;7.478;2022-11-14T00:13:28;29.80;;;21.50;;
15096;SDS011;7649;52.084;7.478;2022-11-14T00:15:58;30.97;;;22.37;;
15096;SDS011;7649;52.084;7.478;2022-11-14T00:18:26;31.17;;;22.07;;
15096;SDS011;7649;52.084;7.478;2022-11-14T00:20:55;34.43;;;22.73;;
15096;SDS011;7649;52.084;7.478;2022-11-14T00:23:23;30.47;;;22.17;;
15096;SDS011;7649;52.084;7.478;2022-11-14T00:25:52;30.03;;;22.60;;
15096;SDS011;7649;52.084;7.478;2022-11-14T00:28:20;34.30;;;25.07;;
15096;SDS011;7649;52.084;7.478;2022-11-14T00:30:48;35.43;;;24.40;;
15096;SDS011;7649;52.084;7.478;2022-11-14T00:33:18;36.67;;;25.00;;
15096;SDS011;7649;52.084;7.478;2022-11-14T00:35:50;34.73;;;24.77;;
15096;SDS011;7649;52.084;7.478;2022-11-14T00:38:19;30.67;;;22.50;;
15096;SDS011;7649;52.084;7.478;2022-11-14T00:40:47;33.40;;;23.80;;
15096;SDS011;7649;52.084;7.478;2022-11-14T00:43:15;32.47;;;22.63;;
15096;SDS011;7649;52.084;7.478;2022-11-14T00:45:44;32.73;;;22.53;;
15096;SDS011;7649;52.084;7.478;2022-11-14T00:48:12;33.27;;;23.30;;
15096;SDS011;7649;52.084;7.478;2022-11-14T00:50:42;31.40;;;21.63;;
15096;SDS011;7649;52.084;7.478;2022-11-14T00:53:10;33.83;;;22.53;;
15096;SDS011;7649;52.084;7.478;2022-11-14T00:55:39;31.53;;;21.37;;
15096;SDS011;7649;52.084;7.478;2022-11-14T00:58:08;30.00;;;21.60;;
15096;SDS011;7649;52.084;7.478;2022-11-14T01:00:36;27.00;;;19.70;;
15096;SDS011;7649;52.084;7.478;2022-11-14T01:03:04;29.33;;;21.20;;
15096;SDS011;7649;52.084;7.478;2022-11-14T01:05:33;29.13;;;21.30;;
15096;SDS011;7649;52.084;7.478;2022-11-14T01:08:02;28.67;;;20.40;;
15096;SDS011;7649;52.084;7.478;2022-11-14T01:10:31;26.87;;;19.43;;
15096;SDS011;7649;52.084;7.478;2022-11-14T01:12:59;26.50;;;19.63;;
15096;SDS011;7649;52.084;7.478;2022-11-14T01:15:27;25.47;;;19.07;;
15096;SDS011;7649;52.084;7.478;2022-11-14T01:17:55;26.70;;;19.77;;
15096;SDS011;7649;52.084;7.478;2022-11-14T01:20:24;26.27;;;19.27;;
15096;SDS011;7649;52.084;7.478;2022-11-14T01:22:52;26.17;;;19.13;;
15096;SDS011;7649;52.084;7.478;2022-11-14T01:25:22;24.30;;;17.27;;
15096;SDS011;7649;52.084;7.478;2022-11-14T01:27:50;22.43;;;17.63;;
15096;SDS011;7649;52.084;7.478;2022-11-14T01:30:18;22.93;;;16.93;;
15096;SDS011;7649;52.084;7.478;2022-11-14T01:32:46;24.17;;;17.20;;
15096;SDS011;7649;52.084;7.478;2022-11-14T01:35:15;19.87;;;16.10;;
15096;SDS011;7649;52.084;7.478;2022-11-14T01:37:43;20.90;;;16.33;;
15096;SDS011;7649;52.084;7.478;2022-11-14T01:40:11;19.53;;;15.57;;
15096;SDS011;7649;52.084;7.478;2022-11-14T01:42:41;21.17;;;15.53;;
15096;SDS011;7649;52.084;7.478;2022-11-14T01:47:56;21.10;;;16.03;;
15096;SDS011;7649;52.084;7.478;2022-11-14T01:50:24;21.37;;;16.17;;
15096;SDS011;7649;52.084;7.478;2022-11-14T01:52:54;20.23;;;15.50;;
15096;SDS011;7649;52.084;7.478;2022-11-14T01:55:22;21.53;;;16.43;;
15096;SDS011;7649;52.084;7.478;2022-11-14T01:57:53;21.93;;;16.33;;
15096;SDS011;7649;52.084;7.478;2022-11-14T02:00:22;25.27;;;16.80;;
15096;SDS011;7649;52.084;7.478;2022-11-14T02:02:50;22.63;;;16.87;;
15096;SDS011;7649;52.084;7.478;2022-11-14T02:05:19;20.23;;;15.60;;
15096;SDS011;7649;52.084;7.478;2022-11-14T02:07:47;20.23;;;15.33;;
15096;SDS011;7649;52.084;7.478;2022-11-14T02:10:17;22.80;;;16.70;;
15096;SDS011;7649;52.084;7.478;2022-11-14T02:12:46;22.70;;;16.50;;
15096;SDS011;7649;52.084;7.478;2022-11-14T02:15:16;20.67;;;15.93;;
15096;SDS011;7649;52.084;7.478;2022-11-14T02:17:44;17.83;;;14.57;;
15096;SDS011;7649;52.084;7.478;2022-11-14T02:20:21;19.40;;;14.27;;
15096;SDS011;7649;52.084;7.478;2022-11-14T02:22:50;19.07;;;14.60;;
15096;SDS011;7649;52.084;7.478;2022-11-14T02:25:18;16.93;;;14.10;;
15096;SDS011;7649;52.084;7.478;2022-11-14T02:27:46;16.23;;;14.00;;
15096;SDS011;7649;52.084;7.478;2022-11-14T02:30:16;16.60;;;13.43;;
15096;SDS011;7649;52.084;7.478;2022-11-14T02:32:44;16.53;;;13.47;;
15096;SDS011;7649;52.084;7.478;2022-11-14T02:35:34;15.97;;;13.20;;
15096;SDS011;7649;52.084;7.478;2022-11-14T02:38:02;13.83;;;11.27;;
15096;SDS011;7649;52.084;7.478;2022-11-14T02:40:31;13.33;;;10.97;;
15096;SDS011;7649;52.084;7.478;2022-11-14T02:42:59;13.47;;;11.37;;
15096;SDS011;7649;52.084;7.478;2022-11-14T02:45:27;13.47;;;11.73;;
15096;SDS011;7649;52.084;7.478;2022-11-14T02:47:55;13.83;;;12.07;;
15096;SDS011;7649;52.084;7.478;2022-11-14T02:50:24;14.60;;;12.07;;
15096;SDS011;7649;52.084;7.478;2022-11-14T02:52:53;15.00;;;12.30;;
15096;SDS011;7649;52.084;7.478;2022-11-14T02:55:22;15.83;;;12.50;;
15096;SDS011;7649;52.084;7.478;2022-11-14T02:57:50;14.87;;;12.13;;
15096;SDS011;7649;52.084;7.478;2022-11-14T03:00:18;15.13;;;12.83;;
15096;SDS011;7649;52.084;7.478;2022-11-14T03:02:47;15.03;;;12.77;;
15096;SDS011;7649;52.084;7.478;2022-11-14T03:05:15;15.17;;;12.73;;
15096;SDS011;7649;52.084;7.478;2022-11-14T03:07:43;15.93;;;13.30;;
15096;SDS011;7649;52.084;7.478;2022-11-14T03:10:13;17.03;;;13.53;;
15096;SDS011;7649;52.084;7.478;2022-11-14T03:12:41;18.23;;;13.53;;
15096;SDS011;7649;52.084;7.478;2022-11-14T03:15:09;15.23;;;12.67;;
15096;SDS011;7649;52.084;7.478;2022-11-14T03:17:38;15.70;;;12.63;;
15096;SDS011;7649;52.084;7.478;2022-11-14T03:20:06;16.10;;;12.73;;
15096;SDS011;7649;52.084;7.478;2022-11-14T03:22:35;16.50;;;12.80;;
15096;SDS011;7649;52.084;7.478;2022-11-14T03:25:04;18.40;;;13.83;;
15096;SDS011;7649;52.084;7.478;2022-11-14T03:27:33;20.20;;;15.37;;
15096;SDS011;7649;52.084;7.478;2022-11-14T03:30:02;19.13;;;14.63;;
15096;SDS011;7649;52.084;7.478;2022-11-14T03:32:30;16.50;;;12.93;;
15096;SDS011;7649;52.084;7.478;2022-11-14T03:34:59;18.83;;;14.23;;
15096;SDS011;7649;52.084;7.478;2022-11-14T03:37:27;19.80;;;14.73;;
15096;SDS011;7649;52.084;7.478;2022-11-14T03:39:55;21.17;;;14.63;;
15096;SDS011;7649;52.084;7.478;2022-11-14T03:42:23;19.60;;;14.77;;
15096;SDS011;7649;52.084;7.478;2022-11-14T03:44:53;17.00;;;13.60;;
15096;SDS011;7649;52.084;7.478;2022-11-14T03:47:21;19.07;;;13.93;;
15096;SDS011;7649;52.084;7.478;2022-11-14T03:49:50;19.93;;;14.70;;
15096;SDS011;7649;52.084;7.478;2022-11-14T03:52:18;17.93;;;12.97;;
15096;SDS011;7649;52.084;7.478;2022-11-14T03:54:46;17.40;;;13.27;;
15096;SDS011;7649;52.084;7.478;2022-11-14T03:57:15;18.67;;;13.33;;
15096;SDS011;7649;52.084;7.478;2022-11-14T03:59:43;17.03;;;12.73;;
15096;SDS011;7649;52.084;7.478;2022-11-14T04:02:13;15.87;;;11.83;;
15096;SDS011;7649;52.084;7.478;2022-11-14T04:04:41;16.60;;;12.07;;
15096;SDS011;7649;52.084;7.478;2022-11-14T04:07:09;14.50;;;11.17;;
15096;SDS011;7649;52.084;7.478;2022-11-14T04:09:38;15.47;;;11.83;;
15096;SDS011;7649;52.084;7.478;2022-11-14T04:12:06;18.07;;;12.73;;
15096;SDS011;7649;52.084;7.478;2022-11-14T04:14:40;20.37;;;14.13;;
15096;SDS011;7649;52.084;7.478;2022-11-14T04:17:09;17.70;;;13.10;;
15096;SDS011;7649;52.084;7.478;2022-11-14T04:19:38;17.83;;;13.10;;
15096;SDS011;7649;52.084;7.478;2022-11-14T04:22:06;19.20;;;13.63;;
15096;SDS011;7649;52.084;7.478;2022-11-14T04:24:35;15.73;;;12.63;;
15096;SDS011;7649;52.084;7.478;2022-11-14T04:27:03;19.27;;;14.10;;
15096;SDS011;7649;52.084;7.478;2022-11-14T04:29:31;17.90;;;13.60;;
15096;SDS011;7649;52.084;7.478;2022-11-14T04:31:59;21.20;;;14.13;;
15096;SDS011;7649;52.084;7.478;2022-11-14T04:34:28;20.10;;;14.50;;
15096;SDS011;7649;52.084;7.478;2022-11-14T04:36:57;22.17;;;14.60;;
15096;SDS011;7649;52.084;7.478;2022-11-14T04:39:26;21.60;;;15.90;;
15096;SDS011;7649;52.084;7.478;2022-11-14T04:41:54;24.80;;;17.07;;
15096;SDS011;7649;52.084;7.478;2022-11-14T04:44:22;23.70;;;15.30;;
15096;SDS011;7649;52.084;7.478;2022-11-14T04:46:50;22.23;;;15.50;;
15096;SDS011;7649;52.084;7.478;2022-11-14T04:49:19;22.97;;;15.70;;
15096;SDS011;7649;52.084;7.478;2022-11-14T04:51:48;21.50;;;15.77;;
15096;SDS011;7649;52.084;7.478;2022-11-14T04:54:17;21.73;;;15.40;;
15096;SDS011;7649;52.084;7.478;2022-11-14T04:56:46;23.97;;;18.40;;
15096;SDS011;7649;52.084;7.478;2022-11-14T04:59:14;20.97;;;17.17;;
15096;SDS011;7649;52.084;7.478;2022-11-14T05:01:46;20.27;;;14.73;;
15096;SDS011;7649;52.084;7.478;2022-11-14T05:04:14;18.50;;;13.90;;
15096;SDS011;7649;52.084;7.478;2022-11-14T05:06:43;17.83;;;13.83;;
15096;SDS011;7649;52.084;7.478;2022-11-14T05:09:11;17.67;;;13.77;;
15096;SDS011;7649;52.084;7.478;2022-11-14T05:11:40;16.43;;;12.70;;
15096;SDS011;7649;52.084;7.478;2022-11-14T05:14:09;15.43;;;13.07;;
15096;SDS011;7649;52.084;7.478;2022-11-14T05:16:37;15.50;;;12.40;;
15096;SDS011;7649;52.084;7.478;2022-11-14T05:19:05;15.33;;;12.93;;
15096;SDS011;7649;52.084;7.478;2022-11-14T05:21:33;16.80;;;11.93;;
15096;SDS011;7649;52.084;7.478;2022-11-14T05:24:02;14.47;;;11.53;;
15096;SDS011;7649;52.084;7.478;2022-11-14T05:26:30;14.73;;;12.00;;
15096;SDS011;7649;52.084;7.478;2022-11-14T05:28:59;16.60;;;12.20;;
15096;SDS011;7649;52.084;7.478;2022-11-14T05:31:28;16.97;;;12.67;;
15096;SDS011;7649;52.084;7.478;2022-11-14T05:33:56;13.47;;;11.73;;
15096;SDS011;7649;52.084;7.478;2022-11-14T05:36:24;14.40;;;10.90;;
15096;SDS011;7649;52.084;7.478;2022-11-14T05:38:53;15.97;;;12.23;;
15096;SDS011;7649;52.084;7.478;2022-11-14T05:41:21;13.67;;;11.93;;
15096;SDS011;7649;52.084;7.478;2022-11-14T05:43:49;16.13;;;12.40;;
15096;SDS011;7649;52.084;7.478;2022-11-14T05:46:19;15.70;;;12.40;;
15096;SDS011;7649;52.084;7.478;2022-11-14T05:48:47;15.83;;;12.80;;
15096;SDS011;7649;52.084;7.478;2022-11-14T05:51:15;22.53;;;13.87;;
15096;SDS011;7649;52.084;7.478;2022-11-14T05:53:43;19.13;;;13.83;;
15096;SDS011;7649;52.084;7.478;2022-11-14T05:56:12;16.80;;;13.20;;
15096;SDS011;7649;52.084;7.478;2022-11-14T05:58:40;16.93;;;12.80;;
15096;SDS011;7649;52.084;7.478;2022-11-14T06:01:09;19.17;;;14.33;;
15096;SDS011;7649;52.084;7.478;2022-11-14T06:03:40;34.20;;;27.47;;
15096;SDS011;7649;52.084;7.478;2022-11-14T06:06:09;25.63;;;18.97;;
15096;SDS011;7649;52.084;7.478;2022-11-14T06:08:37;30.13;;;21.67;;
15096;SDS011;7649;52.084;7.478;2022-11-14T06:11:06;30.97;;;23.67;;
15096;SDS011;7649;52.084;7.478;2022-11-14T06:13:35;30.47;;;22.90;;
15096;SDS011;7649;52.084;7.478;2022-11-14T06:16:04;30.33;;;21.90;;
15096;SDS011;7649;52.084;7.478;2022-11-14T06:18:33;29.83;;;21.27;;
15096;SDS011;7649;52.084;7.478;2022-11-14T06:21:04;28.43;;;19.90;;
15096;SDS011;7649;52.084;7.478;2022-11-14T06:23:33;24.33;;;18.03;;
15096;SDS011;7649;52.084;7.478;2022-11-14T06:26:02;19.93;;;16.17;;
15096;SDS011;7649;52.084;7.478;2022-11-14T06:28:31;18.20;;;14.37;;
15096;SDS011;7649;52.084;7.478;2022-11-14T06:31:00;18.17;;;13.97;;
15096;SDS011;7649;52.084;7.478;2022-11-14T06:33:29;17.67;;;13.77;;
15096;SDS011;7649;52.084;7.478;2022-11-14T06:36:00;17.30;;;13.63;;
15096;SDS011;7649;52.084;7.478;2022-11-14T06:38:30;15.23;;;12.70;;
15096;SDS011;7649;52.084;7.478;2022-11-14T06:41:02;17.90;;;12.57;;
15096;SDS011;7649;52.084;7.478;2022-11-14T06:43:31;16.70;;;13.10;;
15096;SDS011;7649;52.084;7.478;2022-11-14T06:46:00;17.20;;;12.93;;
15096;SDS011;7649;52.084;7.478;2022-11-14T06:48:28;19.13;;;14.30;;
15096;SDS011;7649;52.084;7.478;2022-11-14T06:50:57;23.77;;;17.30;;
15096;SDS011;7649;52.084;7.478;2022-11-14T06:53:26;20.13;;;14.67;;
15096;SDS011;7649;52.084;7.478;2022-11-14T06:55:57;20.07;;;15.53;;
15096;SDS011;7649;52.084;7.478;2022-11-14T06:58:26;21.20;;;15.27;;
15096;SDS011;7649;52.084;7.478;2022-11-14T07:00:55;20.17;;;15.27;;
15096;SDS011;7649;52.084;7.478;2022-11-14T07:03:23;16.90;;;13.07;;
15096;SDS011;7649;52.084;7.478;2022-11-14T07:05:52;18.63;;;13.30;;
15096;SDS011;7649;52.084;7.478;2022-11-14T07:08:20;19.13;;;14.23;;
15096;SDS011;7649;52.084;7.478;2022-11-14T07:10:48;17.33;;;13.87;;
15096;SDS011;7649;52.084;7.478;2022-11-14T07:13:18;19.27;;;14.10;;
15096;SDS011;7649;52.084;7.478;2022-11-14T07:15:49;19.27;;;15.37;;
15096;SDS011;7649;52.084;7.478;2022-11-14T07:18:18;19.20;;;15.10;;
15096;SDS011;7649;52.084;7.478;2022-11-14T07:20:46;19.70;;;16.10;;
15096;SDS011;7649;52.084;7.478;2022-11-14T07:23:14;20.17;;;15.93;;
15096;SDS011;7649;52.084;7.478;2022-11-14T07:25:48;22.63;;;17.30;;
15096;SDS011;7649;52.084;7.478;2022-11-14T07:28:18;21.40;;;16.13;;
15096;SDS011;7649;52.084;7.478;2022-11-14T07:30:46;23.70;;;16.80;;
15096;SDS011;7649;52.084;7.478;2022-11-14T07:33:14;29.17;;;19.07;;
15096;SDS011;7649;52.084;7.478;2022-11-14T07:35:42;29.80;;;22.00;;
15096;SDS011;7649;52.084;7.478;2022-11-14T07:38:11;25.93;;;17.33;;
15096;SDS011;7649;52.084;7.478;2022-11-14T07:40:39;20.60;;;14.77;;
15096;SDS011;7649;52.084;7.478;2022-11-14T07:43:07;17.03;;;13.87;;
15096;SDS011;7649;52.084;7.478;2022-11-14T07:45:37;16.63;;;13.60;;
15096;SDS011;7649;52.084;7.478;2022-11-14T07:48:05;18.53;;;13.53;;
15096;SDS011;7649;52.084;7.478;2022-11-14T07:50:33;17.47;;;13.37;;
15096;SDS011;7649;52.084;7.478;2022-11-14T07:53:01;17.93;;;13.90;;
15096;SDS011;7649;52.084;7.478;2022-11-14T07:55:30;21.20;;;14.33;;
15096;SDS011;7649;52.084;7.478;2022-11-14T07:57:58;23.33;;;16.37;;
15096;SDS011;7649;52.084;7.478;2022-11-14T08:00:26;18.93;;;15.07;;
15096;SDS011;7649;52.084;7.478;2022-11-14T08:02:56;20.77;;;15.07;;
15096;SDS011;7649;52.084;7.478;2022-11-14T08:05:24;24.70;;;17.10;;
15096;SDS011;7649;52.084;7.478;2022-11-14T08:07:52;21.30;;;17.17;;
15096;SDS011;7649;52.084;7.478;2022-11-14T08:10:21;22.30;;;14.80;;
15096;SDS011;7649;52.084;7.478;2022-11-14T08:12:55;22.43;;;15.80;;
15096;SDS011;7649;52.084;7.478;2022-11-14T08:15:45;24.33;;;17.73;;
15096;SDS011;7649;52.084;7.478;2022-11-14T08:18:14;25.33;;;19.33;;
15096;SDS011;7649;52.084;7.478;2022-11-14T08:20:43;26.40;;;18.87;;
15096;SDS011;7649;52.084;7.478;2022-11-14T08:23:11;22.00;;;17.40;;
15096;SDS011;7649;52.084;7.478;2022-11-14T08:25:39;20.70;;;16.60;;
15096;SDS011;7649;52.084;7.478;2022-11-14T08:28:08;18.70;;;15.63;;
15096;SDS011;7649;52.084;7.478;2022-11-14T08:30:36;17.47;;;15.50;;
15096;SDS011;7649;52.084;7.478;2022-11-14T08:33:05;17.53;;;14.90;;
15096;SDS011;7649;52.084;7.478;2022-11-14T08:35:34;20.37;;;16.17;;
15096;SDS011;7649;52.084;7.478;2022-11-14T08:38:03;16.27;;;14.23;;
15096;SDS011;7649;52.084;7.478;2022-11-14T08:40:31;18.33;;;14.70;;
15096;SDS011;7649;52.084;7.478;2022-11-14T08:43:00;17.80;;;14.40;;
15096;SDS011;7649;52.084;7.478;2022-11-14T08:45:28;18.77;;;14.53;;
15096;SDS011;7649;52.084;7.478;2022-11-14T08:47:56;17.30;;;15.10;;
15096;SDS011;7649;52.084;7.478;2022-11-14T08:50:25;18.10;;;14.90;;
15096;SDS011;7649;52.084;7.478;2022-11-14T08:52:55;17.30;;;14.70;;
15096;SDS011;7649;52.084;7.478;2022-11-14T08:55:23;16.93;;;15.10;;
15096;SDS011;7649;52.084;7.478;2022-11-14T08:57:51;17.20;;;14.20;;
15096;SDS011;7649;52.084;7.478;2022-11-14T09:00:20;17.10;;;15.20;;
15096;SDS011;7649;52.084;7.478;2022-11-14T09:02:49;19.57;;;15.90;;
15096;SDS011;7649;52.084;7.478;2022-11-14T09:05:17;17.97;;;14.60;;
15096;SDS011;7649;52.084;7.478;2022-11-14T09:07:45;15.53;;;13.90;;
15096;SDS011;7649;52.084;7.478;2022-11-14T09:10:15;15.43;;;13.63;;
15096;SDS011;7649;52.084;7.478;2022-11-14T09:12:43;16.10;;;14.10;;
15096;SDS011;7649;52.084;7.478;2022-11-14T09:15:12;19.43;;;14.80;;
15096;SDS011;7649;52.084;7.478;2022-11-14T09:17:40;18.03;;;15.03;;
15096;SDS011;7649;52.084;7.478;2022-11-14T09:20:08;19.37;;;14.00;;
15096;SDS011;7649;52.084;7.478;2022-11-14T09:22:36;21.90;;;15.47;;
15096;SDS011;7649;52.084;7.478;2022-11-14T09:25:05;18.43;;;13.80;;
15096;SDS011;7649;52.084;7.478;2022-11-14T09:27:35;17.37;;;14.33;;
15096;SDS011;7649;52.084;7.478;2022-11-14T09:30:04;16.63;;;14.33;;
15096;SDS011;7649;52.084;7.478;2022-11-14T09:32:32;17.30;;;14.60;;
15096;SDS011;7649;52.084;7.478;2022-11-14T09:35:01;18.33;;;14.83;;
15096;SDS011;7649;52.084;7.478;2022-11-14T09:37:29;20.10;;;14.87;;
15096;SDS011;7649;52.084;7.478;2022-11-14T09:39:57;17.77;;;14.93;;
15096;SDS011;7649;52.084;7.478;2022-11-14T09:42:29;16.30;;;13.70;;
15096;SDS011;7649;52.084;7.478;2022-11-14T09:45:03;15.53;;;13.53;;
15096;SDS011;7649;52.084;7.478;2022-11-14T09:47:34;16.20;;;14.50;;
15096;SDS011;7649;52.084;7.478;2022-11-14T09:50:05;15.83;;;13.90;;
15096;SDS011;7649;52.084;7.478;2022-11-14T09:52:34;15.70;;;13.27;;
15096;SDS011;7649;52.084;7.478;2022-11-14T09:55:08;16.27;;;13.73;;
15096;SDS011;7649;52.084;7.478;2022-11-14T09:57:38;14.27;;;12.77;;
15096;SDS011;7649;52.084;7.478;2022-11-14T10:00:13;14.87;;;12.67;;
15096;SDS011;7649;52.084;7.478;2022-11-14T10:02:49;15.10;;;12.30;;
15096;SDS011;7649;52.084;7.478;2022-11-14T10:05:23;14.00;;;12.43;;
15096;SDS011;7649;52.084;7.478;2022-11-14T10:07:59;15.50;;;13.13;;
15096;SDS011;7649;52.084;7.478;2022-11-14T10:10:32;16.50;;;12.50;;
15096;SDS011;7649;52.084;7.478;2022-11-14T10:13:06;14.00;;;12.60;;
15096;SDS011;7649;52.084;7.478;2022-11-14T10:15:41;13.60;;;12.27;;
15096;SDS011;7649;52.084;7.478;2022-11-14T10:18:16;14.43;;;12.63;;
15096;SDS011;7649;52.084;7.478;2022-11-14T10:20:47;15.47;;;12.53;;
15096;SDS011;7649;52.084;7.478;2022-11-14T10:23:21;13.17;;;11.80;;
15096;SDS011;7649;52.084;7.478;2022-11-14T10:25:54;13.20;;;11.80;;
15096;SDS011;7649;52.084;7.478;2022-11-14T10:28:32;14.20;;;11.87;;
15096;SDS011;7649;52.084;7.478;2022-11-14T10:31:04;13.60;;;12.20;;
15096;SDS011;7649;52.084;7.478;2022-11-14T10:33:37;13.33;;;12.03;;
15096;SDS011;7649;52.084;7.478;2022-11-14T10:36:11;14.13;;;11.77;;
15096;SDS011;7649;52.084;7.478;2022-11-14T10:38:41;13.87;;;11.80;;
15096;SDS011;7649;52.084;7.478;2022-11-14T10:41:10;12.37;;;11.17;;
15096;SDS011;7649;52.084;7.478;2022-11-14T10:43:59;12.37;;;10.50;;
15096;SDS011;7649;52.084;7.478;2022-11-14T10:46:29;12.93;;;11.63;;
15096;SDS011;7649;52.084;7.478;2022-11-14T10:48:59;12.73;;;11.43;;
15096;SDS011;7649;52.084;7.478;2022-11-14T10:51:28;12.77;;;11.50;;
15096;SDS011;7649;52.084;7.478;2022-11-14T10:53:59;13.43;;;12.13;;
15096;SDS011;7649;52.084;7.478;2022-11-14T10:56:29;12.80;;;11.50;;
15096;SDS011;7649;52.084;7.478;2022-11-14T10:58:57;13.10;;;11.80;;
15096;SDS011;7649;52.084;7.478;2022-11-14T11:01:34;12.17;;;10.87;;
15096;SDS011;7649;52.084;7.478;2022-11-14T11:04:12;12.07;;;10.87;;
15096;SDS011;7649;52.084;7.478;2022-11-14T11:06:41;12.73;;;11.40;;
15096;SDS011;7649;52.084;7.478;2022-11-14T11:09:13;12.97;;;11.67;;
15096;SDS011;7649;52.084;7.478;2022-11-14T11:12:00;13.23;;;11.67;;
15096;SDS011;7649;52.084;7.478;2022-11-14T11:14:28;11.87;;;10.70;;
15096;SDS011;7649;52.084;7.478;2022-11-14T11:17:08;12.43;;;11.20;;
15096;SDS011;7649;52.084;7.478;2022-11-14T11:19:43;11.60;;;10.50;;
15096;SDS011;7649;52.084;7.478;2022-11-14T11:22:27;11.37;;;10.27;;
15096;SDS011;7649;52.084;7.478;2022-11-14T11:24:55;12.23;;;9.97;;
15096;SDS011;7649;52.084;7.478;2022-11-14T11:27:24;13.57;;;10.90;;
15096;SDS011;7649;52.084;7.478;2022-11-14T11:30:04;11.67;;;10.43;;
15096;SDS011;7649;52.084;7.478;2022-11-14T11:32:34;12.20;;;10.83;;
15096;SDS011;7649;52.084;7.478;2022-11-14T11:35:02;12.07;;;10.53;;
15096;SDS011;7649;52.084;7.478;2022-11-14T11:37:38;11.73;;;10.63;;
15096;SDS011;7649;52.084;7.478;2022-11-14T11:40:11;12.43;;;11.13;;
15096;SDS011;7649;52.084;7.478;2022-11-14T11:42:42;10.93;;;9.83;;
15096;SDS011;7649;52.084;7.478;2022-11-14T11:45:32;13.10;;;11.00;;
15096;SDS011;7649;52.084;7.478;2022-11-14T11:48:07;12.40;;;11.10;;
15096;SDS011;7649;52.084;7.478;2022-11-14T11:50:36;12.23;;;10.93;;
15096;SDS011;7649;52.084;7.478;2022-11-14T11:53:05;11.93;;;10.67;;
15096;SDS011;7649;52.084;7.478;2022-11-14T11:55:38;12.20;;;11.00;;
15096;SDS011;7649;52.084;7.478;2022-11-14T11:58:10;13.20;;;10.47;;
15096;SDS011;7649;52.084;7.478;2022-11-14T12:00:39;13.00;;;11.80;;
15096;SDS011;7649;52.084;7.478;2022-11-14T12:03:10;11.10;;;10.00;;
15096;SDS011;7649;52.084;7.478;2022-11-14T12:05:46;12.57;;;10.73;;
15096;SDS011;7649;52.084;7.478;2022-11-14T12:08:18;11.10;;;9.87;;
15096;SDS011;7649;52.084;7.478;2022-11-14T12:10:48;11.13;;;10.03;;
15096;SDS011;7649;52.084;7.478;2022-11-14T12:13:33;10.90;;;9.90;;
15096;SDS011;7649;52.084;7.478;2022-11-14T12:16:10;11.33;;;10.27;;
15096;SDS011;7649;52.084;7.478;2022-11-14T12:18:45;11.13;;;10.03;;
15096;SDS011;7649;52.084;7.478;2022-11-14T12:21:23;11.13;;;10.03;;
15096;SDS011;7649;52.084;7.478;2022-11-14T12:23:59;11.23;;;9.93;;
15096;SDS011;7649;52.084;7.478;2022-11-14T12:26:39;11.20;;;10.10;;
15096;SDS011;7649;52.084;7.478;2022-11-14T12:29:13;13.77;;;10.37;;
15096;SDS011;7649;52.084;7.478;2022-11-14T12:31:50;10.67;;;9.40;;
15096;SDS011;7649;52.084;7.478;2022-11-14T12:34:24;11.70;;;9.63;;
15096;SDS011;7649;52.084;7.478;2022-11-14T12:36:53;10.83;;;9.73;;
15096;SDS011;7649;52.084;7.478;2022-11-14T12:39:23;10.63;;;9.57;;
15096;SDS011;7649;52.084;7.478;2022-11-14T12:41:59;12.13;;;10.23;;
15096;SDS011;7649;52.084;7.478;2022-11-14T12:44:32;12.03;;;10.80;;
15096;SDS011;7649;52.084;7.478;2022-11-14T12:47:14;11.77;;;10.50;;
15096;SDS011;7649;52.084;7.478;2022-11-14T12:50:00;11.10;;;9.90;;
15096;SDS011;7649;52.084;7.478;2022-11-14T12:52:41;10.80;;;9.70;;
15096;SDS011;7649;52.084;7.478;2022-11-14T12:57:54;10.43;;;8.93;;
15096;SDS011;7649;52.084;7.478;2022-11-14T13:00:30;10.70;;;9.60;;
15096;SDS011;7649;52.084;7.478;2022-11-14T13:03:18;10.80;;;9.07;;
15096;SDS011;7649;52.084;7.478;2022-11-14T13:05:51;9.53;;;8.53;;
15096;SDS011;7649;52.084;7.478;2022-11-14T13:08:27;9.73;;;8.80;;
15096;SDS011;7649;52.084;7.478;2022-11-14T13:10:57;12.80;;;9.37;;
15096;SDS011;7649;52.084;7.478;2022-11-14T13:13:25;11.03;;;9.60;;
15096;SDS011;7649;52.084;7.478;2022-11-14T13:16:19;9.90;;;8.90;;
15096;SDS011;7649;52.084;7.478;2022-11-14T13:19:19;10.27;;;9.17;;
15096;SDS011;7649;52.084;7.478;2022-11-14T13:22:18;10.03;;;9.13;;
15096;SDS011;7649;52.084;7.478;2022-11-14T13:27:48;10.27;;;8.70;;
15096;SDS011;7649;52.084;7.478;2022-11-14T13:36:05;10.00;;;9.00;;
15096;SDS011;7649;52.084;7.478;2022-11-14T13:38:47;9.77;;;8.87;;
15096;SDS011;7649;52.084;7.478;2022-11-14T13:41:23;9.77;;;8.60;;
15096;SDS011;7649;52.084;7.478;2022-11-14T13:43:58;9.27;;;8.37;;
15096;SDS011;7649;52.084;7.478;2022-11-14T13:46:33;9.20;;;8.20;;
15096;SDS011;7649;52.084;7.478;2022-11-14T13:49:12;10.23;;;8.53;;
15096;SDS011;7649;52.084;7.478;2022-11-14T13:51:45;9.63;;;8.40;;
15096;SDS011;7649;52.084;7.478;2022-11-14T13:54:15;9.57;;;8.57;;
15096;SDS011;7649;52.084;7.478;2022-11-14T13:56:48;9.03;;;8.13;;
15096;SDS011;7649;52.084;7.478;2022-11-14T14:02:20;9.43;;;8.20;;
15096;SDS011;7649;52.084;7.478;2022-11-14T14:04:53;9.40;;;7.90;;
15096;SDS011;7649;52.084;7.478;2022-11-14T14:07:29;9.40;;;8.43;;
15096;SDS011;7649;52.084;7.478;2022-11-14T14:10:02;8.87;;;7.97;;
15096;SDS011;7649;52.084;7.478;2022-11-14T14:12:41;10.23;;;8.07;;
15096;SDS011;7649;52.084;7.478;2022-11-14T14:15:17;9.73;;;8.20;;
15096;SDS011;7649;52.084;7.478;2022-11-14T14:17:49;11.27;;;8.80;;
15096;SDS011;7649;52.084;7.478;2022-11-14T14:20:21;9.20;;;8.00;;
15096;SDS011;7649;52.084;7.478;2022-11-14T14:22:55;9.73;;;8.40;;
15096;SDS011;7649;52.084;7.478;2022-11-14T14:25:30;12.40;;;9.13;;
15096;SDS011;7649;52.084;7.478;2022-11-14T14:28:04;9.93;;;8.93;;
15096;SDS011;7649;52.084;7.478;2022-11-14T14:30:36;11.00;;;9.27;;
15096;SDS011;7649;52.084;7.478;2022-11-14T14:33:11;10.87;;;8.83;;
15096;SDS011;7649;52.084;7.478;2022-11-14T14:35:47;9.33;;;8.33;;
15096;SDS011;7649;52.084;7.478;2022-11-14T14:38:22;9.70;;;8.47;;
15096;SDS011;7649;52.084;7.478;2022-11-14T14:40:54;9.77;;;8.37;;
15096;SDS011;7649;52.084;7.478;2022-11-14T14:43:23;10.67;;;9.50;;
15096;SDS011;7649;52.084;7.478;2022-11-14T14:45:52;10.53;;;9.10;;
15096;SDS011;7649;52.084;7.478;2022-11-14T14:48:21;10.10;;;9.10;;
15096;SDS011;7649;52.084;7.478;2022-11-14T14:50:51;11.90;;;9.43;;
15096;SDS011;7649;52.084;7.478;2022-11-14T14:53:20;10.77;;;9.37;;
15096;SDS011;7649;52.084;7.478;2022-11-14T14:55:54;11.63;;;9.57;;
15096;SDS011;7649;52.084;7.478;2022-11-14T14:58:23;10.03;;;9.03;;
15096;SDS011;7649;52.084;7.478;2022-11-14T15:00:53;9.47;;;8.57;;
15096;SDS011;7649;52.084;7.478;2022-11-14T15:03:22;9.43;;;8.37;;
15096;SDS011;7649;52.084;7.478;2022-11-14T15:05:58;9.90;;;8.73;;
15096;SDS011;7649;52.084;7.478;2022-11-14T15:08:27;11.73;;;10.00;;
15096;SDS011;7649;52.084;7.478;2022-11-14T15:10:58;12.07;;;9.10;;
15096;SDS011;7649;52.084;7.478;2022-11-14T15:13:27;11.60;;;8.80;;
15096;SDS011;7649;52.084;7.478;2022-11-14T15:15:56;10.27;;;9.17;;